Pearl Of Scandinavia — OWFU2 — position and weather

sailwx.info

Track history (hours):
 
Tides and Currents Weather Stations Pressure Air Temp Water Temp Dewpoint Dewpoint Depression Visibility Wind Speed Wind Dir Waves Ship Positions

Pearl Of Scandinavia

Last reported at 2014-Dec-19 20:34 UTC. Time now 2014-Dec-19 21:08 UTC.
Position N 58°40' E 010°49'.

Length 176.4 m; beam 34 m; draft 6.215 m.

Type: Ship. MMSI: 219945000.

Date/timePositionNaut miles runAvg speedWind from/ knotsBaromVisibWave heightAir tempDewpointWater temp
2014-Dec-19 20:34N 58°40' E 010°49'1616.5
2014-Dec-19 19:34N 58°56' E 010°43'1717.0
2014-Dec-19 18:33N 59°13' E 010°37'1716.7
2014-Dec-19 17:34N 59°29' E 010°34'25 2.7
2014-Dec-19 08:21N 59°54' E 010°41'4114.7
2014-Dec-19 05:33N 59°13' E 010°38'1616.3
2014-Dec-19 04:33N 58°56' E 010°42'1716.3
2014-Dec-19 03:31N 58°40' E 010°47'1616.6
2014-Dec-19 02:33N 58°24' E 010°56'1616.5
2014-Dec-19 01:33N 58°09' E 011°05'1616.4
2014-Dec-19 00:34N 57°53' E 011°15'1616.0
2014-Dec-18 23:33N 57°38' E 011°24'1616.2
2014-Dec-18 22:33N 57°22' E 011°33'2116.1
2014-Dec-18 21:15N 57°02' E 011°45'1116.3
2014-Dec-18 20:33N 56°52' E 011°52'1616.0
2014-Dec-18 19:33N 56°38' E 012°08'3216.2
2014-Dec-18 17:33N 56°09' E 012°32'1615.8
2014-Dec-18 16:33N 55°55' E 012°44'1313.2
2014-Dec-18 15:33N 55°42' E 012°36'0 0.1
2014-Dec-18 14:29N 55°42' E 012°36'0 0.0
2014-Dec-18 13:32N 55°42' E 012°36'0 0.0
2014-Dec-18 12:32N 55°42' E 012°36'0 0.0
2014-Dec-18 11:32N 55°42' E 012°36'0 0.0
2014-Dec-18 10:32N 55°42' E 012°36'0 0.0
2014-Dec-18 09:32N 55°42' E 012°36'0 0.2
2014-Dec-18 08:33N 55°42' E 012°36'1110.9
2014-Dec-18 07:33N 55°53' E 012°40'1413.8
2014-Dec-18 06:33N 56°06' E 012°33'3115.6
2014-Dec-18 04:33N 56°36' E 012°16'1716.5
2014-Dec-18 03:33N 56°52' E 012°11'1616.5
2014-Dec-18 02:33N 57°07' E 011°58'1716.6
2014-Dec-18 01:33N 57°21' E 011°42'1616.5
2014-Dec-18 00:34N 57°36' E 011°28'1716.8
2014-Dec-17 23:33N 57°51' E 011°16'1716.8
2014-Dec-17 22:33N 58°07' E 011°07'1615.8
2014-Dec-17 21:33N 58°23' E 010°58'1615.7
2014-Dec-17 20:34N 58°38' E 010°50'1616.0
2014-Dec-17 19:33N 58°53' E 010°44'1716.7
2014-Dec-17 18:34N 59°10' E 010°38'1717.4
2014-Dec-17 17:33N 59°27' E 010°33'27 2.9
2014-Dec-17 08:22N 59°54' E 010°41'2814.5
2014-Dec-17 06:28N 59°26' E 010°34'1617.0
2014-Dec-17 05:33N 59°11' E 010°39'1716.9
2014-Dec-17 04:33N 58°54' E 010°37'1716.9
2014-Dec-17 03:33N 58°37' E 010°38'1716.8
2014-Dec-17 02:34N 58°21' E 010°44'1716.5
2014-Dec-17 01:33N 58°05' E 010°54'1515.3
2014-Dec-17 00:33N 57°51' E 011°04'1515.1
2014-Dec-16 23:33N 57°36' E 011°13'1515.4
2014-Dec-16 22:33N 57°24' E 011°31'1717.0
2014-Dec-16 21:33N 57°08' E 011°41'1716.8
2014-Dec-16 20:33N 56°52' E 011°50'1716.7
2014-Dec-16 19:33N 56°36' E 011°58'3216.1
2014-Dec-16 17:33N 56°09' E 012°30'1515.3
2014-Dec-16 16:33N 55°56' E 012°43'1413.9
2014-Dec-16 15:33N 55°42' E 012°36'0 0.4
2014-Dec-16 14:31N 55°42' E 012°36'0 0.0
2014-Dec-16 13:31N 55°42' E 012°36'0 0.0
2014-Dec-16 12:31N 55°42' E 012°36'0 0.0
2014-Dec-16 11:31N 55°42' E 012°36'0 0.0
2014-Dec-16 10:31N 55°42' E 012°36'0 0.0
2014-Dec-16 09:31N 55°42' E 012°36'0 0.3
2014-Dec-16 08:33N 55°42' E 012°36'1111.5
2014-Dec-16 07:34N 55°54' E 012°40'1414.1
2014-Dec-16 06:33N 56°07' E 012°31'3415.5
2014-Dec-16 04:23N 56°39' E 012°14'1315.6
2014-Dec-16 03:32N 56°52' E 012°09'1716.6
2014-Dec-16 02:30N 57°08' E 011°57'1917.9
2014-Dec-16 01:27N 57°24' E 011°39'1516.2
2014-Dec-16 00:33N 57°37' E 011°24'1817.9
2014-Dec-15 23:33N 57°51' E 011°05'1716.9
2014-Dec-15 22:33N 58°07' E 010°53'1716.6
2014-Dec-15 21:34N 58°22' E 010°43'1616.3
2014-Dec-15 20:33N 58°38' E 010°33'1616.5
2014-Dec-15 19:33N 58°54' E 010°36'1616.4
2014-Dec-15 18:33N 59°11' E 010°38'1616.1
2014-Dec-15 17:33N 59°27' E 010°33'1914.3
2014-Dec-15 16:14N 59°46' E 010°33'1014.4
2014-Dec-15 15:33N 59°54' E 010°43'1 0.7
2014-Dec-15 14:31N 59°54' E 010°45'0 0.0
2014-Dec-15 13:31N 59°54' E 010°45'0 0.0
2014-Dec-15 12:22N 59°54' E 010°45'0 0.0
2014-Dec-15 11:22N 59°54' E 010°45'0 0.0
2014-Dec-15 10:22N 59°54' E 010°45'0 0.0
2014-Dec-15 09:25N 59°54' E 010°45'0 0.2
2014-Dec-15 08:33N 59°54' E 010°45'2813.3
2014-Dec-15 06:28N 59°27' E 010°34'1718.2
2014-Dec-15 05:33N 59°10' E 010°39'1716.8
2014-Dec-15 04:33N 58°54' E 010°41'1716.9
2014-Dec-15 03:34N 58°37' E 010°44'1716.6
2014-Dec-15 02:34N 58°20' E 010°48'1716.6
2014-Dec-15 01:34N 58°04' E 010°51'1716.8
2014-Dec-15 00:34N 57°47' E 010°54'1615.6
2014-Dec-14 23:34N 57°35' E 011°13'1616.2
2014-Dec-14 22:33N 57°22' E 011°31'2116.6
2014-Dec-14 21:18N 57°03' E 011°44'1316.7
2014-Dec-14 20:31N 56°51' E 011°52'1616.5
2014-Dec-14 19:33N 56°35' E 011°59'3216.2
2014-Dec-14 17:34N 56°08' E 012°32'1616.3
2014-Dec-14 16:34N 55°53' E 012°44'1212.3
2014-Dec-14 15:33N 55°42' E 012°36'0 0.0
2014-Dec-14 14:33N 55°42' E 012°36'0 0.0
2014-Dec-14 13:33N 55°42' E 012°36'0 0.0
2014-Dec-14 12:33N 55°42' E 012°36'0 0.0
2014-Dec-14 11:33N 55°42' E 012°36'0 0.0
2014-Dec-14 10:33N 55°42' E 012°36'0 0.0
2014-Dec-14 09:33N 55°42' E 012°36'0 0.3
2014-Dec-14 08:34N 55°42' E 012°36'1110.7
2014-Dec-14 07:33N 55°53' E 012°40'1414.0
2014-Dec-14 06:33N 56°06' E 012°33'3215.7
2014-Dec-14 04:33N 56°36' E 012°16'1515.6
2014-Dec-14 03:33N 56°51' E 012°10'1716.3
2014-Dec-14 02:32N 57°07' E 011°58'1616.2
2014-Dec-14 01:33N 57°21' E 011°44'1616.4
2014-Dec-14 00:33N 57°35' E 011°29'1716.6
2014-Dec-13 23:33N 57°50' E 011°16'1616.5
2014-Dec-13 22:33N 58°06' E 011°08'1615.7
2014-Dec-13 21:33N 58°21' E 010°59'1615.7
2014-Dec-13 20:33N 58°36' E 010°51'1515.4
2014-Dec-13 19:33N 58°51' E 010°44'1616.4
2014-Dec-13 18:33N 59°07' E 010°39'1717.5
2014-Dec-13 17:33N 59°24' E 010°33'1615.9
2014-Dec-13 16:32N 59°41' E 010°37'1413.8
2014-Dec-13 15:33N 59°54' E 010°43'1 0.8
2014-Dec-13 14:31N 59°54' E 010°45'0 0.0
2014-Dec-13 13:22N 59°54' E 010°45'0 0.0
2014-Dec-13 12:22N 59°54' E 010°45'0 0.0
2014-Dec-13 11:25N 59°54' E 010°45'0 0.0
2014-Dec-13 10:25N 59°54' E 010°45'0 0.0
2014-Dec-13 09:28N 59°54' E 010°45'0 0.1
2014-Dec-13 08:33N 59°54' E 010°45'2613.1
2014-Dec-13 06:32N 59°28' E 010°34'1515.8
2014-Dec-13 05:33N 59°13' E 010°38'1515.4
2014-Dec-13 04:33N 58°58' E 010°42'1816.4
2014-Dec-13 03:29N 58°40' E 010°46'1415.8
2014-Dec-13 02:33N 58°26' E 010°55'1616.0
2014-Dec-13 01:33N 58°11' E 011°04'1616.4
2014-Dec-13 00:33N 57°55' E 011°13'1615.6
2014-Dec-12 23:33N 57°40' E 011°22'1515.2
2014-Dec-12 22:33N 57°26' E 011°31'1515.1
2014-Dec-12 21:33N 57°11' E 011°39'1615.3
2014-Dec-12 20:30N 56°56' E 011°48'1515.8
2014-Dec-12 19:33N 56°42' E 011°56'3517.3
2014-Dec-12 17:33N 56°12' E 012°27'1818.2
2014-Dec-12 16:33N 55°56' E 012°43'1514.6
2014-Dec-12 15:34N 55°42' E 012°36'0 0.1
2014-Dec-12 14:32N 55°42' E 012°36'0 0.0
2014-Dec-12 13:33N 55°42' E 012°36'0 0.0
2014-Dec-12 12:32N 55°42' E 012°36'0 0.0
2014-Dec-12 11:32N 55°42' E 012°36'0 0.0
2014-Dec-12 10:32N 55°42' E 012°36'0 0.0
2014-Dec-12 09:32N 55°42' E 012°36'0 0.4
2014-Dec-12 08:34N 55°42' E 012°36'1111.4
2014-Dec-12 07:33N 55°54' E 012°40'1414.1
2014-Dec-12 06:33N 56°07' E 012°32'3316.4
2014-Dec-12 04:33N 56°38' E 012°15'1717.0
2014-Dec-12 03:33N 56°55' E 012°07'1817.5
2014-Dec-12 02:33N 57°11' E 011°54'1818.3
2014-Dec-12 01:33N 57°27' E 011°38'1817.7
2014-Dec-12 00:33N 57°43' E 011°23'1717.3
2014-Dec-11 23:33N 57°59' E 011°12'1615.6
2014-Dec-11 22:33N 58°14' E 011°03'1615.7
2014-Dec-11 21:33N 58°29' E 010°55'1515.0
2014-Dec-11 20:33N 58°43' E 010°47'1514.5
2014-Dec-11 19:33N 58°58' E 010°42'1514.7
2014-Dec-11 18:33N 59°12' E 010°38'1716.9
2014-Dec-11 17:33N 59°29' E 010°34'2612.8
2014-Dec-11 15:33N 59°54' E 010°45'0 0.0
2014-Dec-11 14:25N 59°54' E 010°45'0 0.0
2014-Dec-11 13:22N 59°54' E 010°45'0 0.0
2014-Dec-11 12:22N 59°54' E 010°45'0 0.0
2014-Dec-11 11:22N 59°54' E 010°45'0 0.0
2014-Dec-11 10:25N 59°54' E 010°45'0 0.0
2014-Dec-11 09:28N 59°54' E 010°45'0 0.2
2014-Dec-11 08:34N 59°54' E 010°45'4314.2
2014-Dec-11 05:33N 59°12' E 010°39'1716.9
2014-Dec-11 04:33N 58°55' E 010°41'1717.4
2014-Dec-11 03:33N 58°37' E 010°44'1817.9
2014-Dec-11 02:33N 58°20' E 010°46'1817.6
2014-Dec-11 01:33N 58°02' E 010°48'1716.7
2014-Dec-11 00:34N 57°45' E 010°53'1716.6
2014-Dec-10 23:33N 57°35' E 011°17'1616.0
2014-Dec-10 22:33N 57°21' E 011°32'2016.4
2014-Dec-10 21:22N 57°03' E 011°45'1215.3
2014-Dec-10 20:33N 56°52' E 011°56'1615.6
2014-Dec-10 19:33N 56°38' E 012°08'3316.3
2014-Dec-10 17:33N 56°08' E 012°31'1515.3
2014-Dec-10 16:33N 55°54' E 012°44'1313.0
2014-Dec-10 15:33N 55°42' E 012°36'0 0.0
2014-Dec-10 14:31N 55°42' E 012°36'0 0.0
2014-Dec-10 13:31N 55°42' E 012°36'0 0.0
2014-Dec-10 12:31N 55°42' E 012°36'0 0.0
2014-Dec-10 11:31N 55°42' E 012°36'0 0.0
2014-Dec-10 10:31N 55°42' E 012°36'0 0.0
2014-Dec-10 09:31N 55°42' E 012°36'4 4.6
2014-Dec-10 08:33N 55°46' E 012°41'1313.0
2014-Dec-10 07:33N 55°59' E 012°40'1413.5
2014-Dec-10 06:33N 56°10' E 012°28'2315.7
2014-Dec-10 05:04N 56°33' E 012°17'815.9
2014-Dec-10 04:33N 56°41' E 012°14'1515.0
2014-Dec-10 03:33N 56°55' E 012°07'1615.7
2014-Dec-10 02:33N 57°10' E 011°55'1615.8
2014-Dec-10 01:33N 57°23' E 011°40'1615.7
2014-Dec-10 00:33N 57°36' E 011°25'1615.7
2014-Dec-09 23:33N 57°51' E 011°16'1515.3
2014-Dec-09 22:33N 58°06' E 011°07'1615.7
2014-Dec-09 21:33N 58°21' E 010°58'1515.3
2014-Dec-09 20:34N 58°36' E 010°51'  
Track history (hours):
 
Tides and Currents Weather Stations Pressure Air Temp Water Temp Dewpoint Dewpoint Depression Visibility Wind Speed Wind Dir Waves Ship Positions

Pearl Of Scandinavia

Last reported at 2014-Dec-19 20:34 UTC. Time now 2014-Dec-19 21:08 UTC.
Position N 58°40' E 010°49'.

Length 176.4 m; beam 34 m; draft 6.215 m.

Type: Ship. MMSI: 219945000.

Date/timePositionNaut miles runAvg speedWind from/ knotsBaromVisibWave heightAir tempDewpointWater temp
2014-Dec-19 20:34N 58°40' E 010°49'1616.5
2014-Dec-19 19:34N 58°56' E 010°43'1717.0
2014-Dec-19 18:33N 59°13' E 010°37'1716.7
2014-Dec-19 17:34N 59°29' E 010°34'25 2.7
2014-Dec-19 08:21N 59°54' E 010°41'4114.7
2014-Dec-19 05:33N 59°13' E 010°38'1616.3
2014-Dec-19 04:33N 58°56' E 010°42'1716.3
2014-Dec-19 03:31N 58°40' E 010°47'1616.6
2014-Dec-19 02:33N 58°24' E 010°56'1616.5
2014-Dec-19 01:33N 58°09' E 011°05'1616.4
2014-Dec-19 00:34N 57°53' E 011°15'1616.0
2014-Dec-18 23:33N 57°38' E 011°24'1616.2
2014-Dec-18 22:33N 57°22' E 011°33'2116.1
2014-Dec-18 21:15N 57°02' E 011°45'1116.3
2014-Dec-18 20:33N 56°52' E 011°52'1616.0
2014-Dec-18 19:33N 56°38' E 012°08'3216.2
2014-Dec-18 17:33N 56°09' E 012°32'1615.8
2014-Dec-18 16:33N 55°55' E 012°44'1313.2
2014-Dec-18 15:33N 55°42' E 012°36'0 0.1
2014-Dec-18 14:29N 55°42' E 012°36'0 0.0
2014-Dec-18 13:32N 55°42' E 012°36'0 0.0
2014-Dec-18 12:32N 55°42' E 012°36'0 0.0
2014-Dec-18 11:32N 55°42' E 012°36'0 0.0
2014-Dec-18 10:32N 55°42' E 012°36'0 0.0
2014-Dec-18 09:32N 55°42' E 012°36'0 0.2
2014-Dec-18 08:33N 55°42' E 012°36'1110.9
2014-Dec-18 07:33N 55°53' E 012°40'1413.8
2014-Dec-18 06:33N 56°06' E 012°33'3115.6
2014-Dec-18 04:33N 56°36' E 012°16'1716.5
2014-Dec-18 03:33N 56°52' E 012°11'1616.5
2014-Dec-18 02:33N 57°07' E 011°58'1716.6
2014-Dec-18 01:33N 57°21' E 011°42'1616.5
2014-Dec-18 00:34N 57°36' E 011°28'1716.8
2014-Dec-17 23:33N 57°51' E 011°16'1716.8
2014-Dec-17 22:33N 58°07' E 011°07'1615.8
2014-Dec-17 21:33N 58°23' E 010°58'1615.7
2014-Dec-17 20:34N 58°38' E 010°50'1616.0
2014-Dec-17 19:33N 58°53' E 010°44'1716.7
2014-Dec-17 18:34N 59°10' E 010°38'1717.4
2014-Dec-17 17:33N 59°27' E 010°33'27 2.9
2014-Dec-17 08:22N 59°54' E 010°41'2814.5
2014-Dec-17 06:28N 59°26' E 010°34'1617.0
2014-Dec-17 05:33N 59°11' E 010°39'1716.9
2014-Dec-17 04:33N 58°54' E 010°37'1716.9
2014-Dec-17 03:33N 58°37' E 010°38'1716.8
2014-Dec-17 02:34N 58°21' E 010°44'1716.5
2014-Dec-17 01:33N 58°05' E 010°54'1515.3
2014-Dec-17 00:33N 57°51' E 011°04'1515.1
2014-Dec-16 23:33N 57°36' E 011°13'1515.4
2014-Dec-16 22:33N 57°24' E 011°31'1717.0
2014-Dec-16 21:33N 57°08' E 011°41'1716.8
2014-Dec-16 20:33N 56°52' E 011°50'1716.7
2014-Dec-16 19:33N 56°36' E 011°58'3216.1
2014-Dec-16 17:33N 56°09' E 012°30'1515.3
2014-Dec-16 16:33N 55°56' E 012°43'1413.9
2014-Dec-16 15:33N 55°42' E 012°36'0 0.4
2014-Dec-16 14:31N 55°42' E 012°36'0 0.0
2014-Dec-16 13:31N 55°42' E 012°36'0 0.0
2014-Dec-16 12:31N 55°42' E 012°36'0 0.0
2014-Dec-16 11:31N 55°42' E 012°36'0 0.0
2014-Dec-16 10:31N 55°42' E 012°36'0 0.0
2014-Dec-16 09:31N 55°42' E 012°36'0 0.3
2014-Dec-16 08:33N 55°42' E 012°36'1111.5
2014-Dec-16 07:34N 55°54' E 012°40'1414.1
2014-Dec-16 06:33N 56°07' E 012°31'3415.5
2014-Dec-16 04:23N 56°39' E 012°14'1315.6
2014-Dec-16 03:32N 56°52' E 012°09'1716.6
2014-Dec-16 02:30N 57°08' E 011°57'1917.9
2014-Dec-16 01:27N 57°24' E 011°39'1516.2
2014-Dec-16 00:33N 57°37' E 011°24'1817.9
2014-Dec-15 23:33N 57°51' E 011°05'1716.9
2014-Dec-15 22:33N 58°07' E 010°53'1716.6
2014-Dec-15 21:34N 58°22' E 010°43'1616.3
2014-Dec-15 20:33N 58°38' E 010°33'1616.5
2014-Dec-15 19:33N 58°54' E 010°36'1616.4
2014-Dec-15 18:33N 59°11' E 010°38'1616.1
2014-Dec-15 17:33N 59°27' E 010°33'1914.3
2014-Dec-15 16:14N 59°46' E 010°33'1014.4
2014-Dec-15 15:33N 59°54' E 010°43'1 0.7
2014-Dec-15 14:31N 59°54' E 010°45'0 0.0
2014-Dec-15 13:31N 59°54' E 010°45'0 0.0
2014-Dec-15 12:22N 59°54' E 010°45'0 0.0
2014-Dec-15 11:22N 59°54' E 010°45'0 0.0
2014-Dec-15 10:22N 59°54' E 010°45'0 0.0
2014-Dec-15 09:25N 59°54' E 010°45'0 0.2
2014-Dec-15 08:33N 59°54' E 010°45'2813.3
2014-Dec-15 06:28N 59°27' E 010°34'1718.2
2014-Dec-15 05:33N 59°10' E 010°39'1716.8
2014-Dec-15 04:33N 58°54' E 010°41'1716.9
2014-Dec-15 03:34N 58°37' E 010°44'1716.6
2014-Dec-15 02:34N 58°20' E 010°48'1716.6
2014-Dec-15 01:34N 58°04' E 010°51'1716.8
2014-Dec-15 00:34N 57°47' E 010°54'1615.6
2014-Dec-14 23:34N 57°35' E 011°13'1616.2
2014-Dec-14 22:33N 57°22' E 011°31'2116.6
2014-Dec-14 21:18N 57°03' E 011°44'1316.7
2014-Dec-14 20:31N 56°51' E 011°52'1616.5
2014-Dec-14 19:33N 56°35' E 011°59'3216.2
2014-Dec-14 17:34N 56°08' E 012°32'1616.3
2014-Dec-14 16:34N 55°53' E 012°44'1212.3
2014-Dec-14 15:33N 55°42' E 012°36'0 0.0
2014-Dec-14 14:33N 55°42' E 012°36'0 0.0
2014-Dec-14 13:33N 55°42' E 012°36'0 0.0
2014-Dec-14 12:33N 55°42' E 012°36'0 0.0
2014-Dec-14 11:33N 55°42' E 012°36'0 0.0
2014-Dec-14 10:33N 55°42' E 012°36'0 0.0
2014-Dec-14 09:33N 55°42' E 012°36'0 0.3
2014-Dec-14 08:34N 55°42' E 012°36'1110.7
2014-Dec-14 07:33N 55°53' E 012°40'1414.0
2014-Dec-14 06:33N 56°06' E 012°33'3215.7
2014-Dec-14 04:33N 56°36' E 012°16'1515.6
2014-Dec-14 03:33N 56°51' E 012°10'1716.3
2014-Dec-14 02:32N 57°07' E 011°58'1616.2
2014-Dec-14 01:33N 57°21' E 011°44'1616.4
2014-Dec-14 00:33N 57°35' E 011°29'1716.6
2014-Dec-13 23:33N 57°50' E 011°16'1616.5
2014-Dec-13 22:33N 58°06' E 011°08'1615.7
2014-Dec-13 21:33N 58°21' E 010°59'1615.7
2014-Dec-13 20:33N 58°36' E 010°51'1515.4
2014-Dec-13 19:33N 58°51' E 010°44'1616.4
2014-Dec-13 18:33N 59°07' E 010°39'1717.5
2014-Dec-13 17:33N 59°24' E 010°33'1615.9
2014-Dec-13 16:32N 59°41' E 010°37'1413.8
2014-Dec-13 15:33N 59°54' E 010°43'1 0.8
2014-Dec-13 14:31N 59°54' E 010°45'0 0.0
2014-Dec-13 13:22N 59°54' E 010°45'0 0.0
2014-Dec-13 12:22N 59°54' E 010°45'0 0.0
2014-Dec-13 11:25N 59°54' E 010°45'0 0.0
2014-Dec-13 10:25N 59°54' E 010°45'0 0.0
2014-Dec-13 09:28N 59°54' E 010°45'0 0.1
2014-Dec-13 08:33N 59°54' E 010°45'2613.1
2014-Dec-13 06:32N 59°28' E 010°34'1515.8
2014-Dec-13 05:33N 59°13' E 010°38'1515.4
2014-Dec-13 04:33N 58°58' E 010°42'1816.4
2014-Dec-13 03:29N 58°40' E 010°46'1415.8
2014-Dec-13 02:33N 58°26' E 010°55'1616.0
2014-Dec-13 01:33N 58°11' E 011°04'1616.4
2014-Dec-13 00:33N 57°55' E 011°13'1615.6
2014-Dec-12 23:33N 57°40' E 011°22'1515.2
2014-Dec-12 22:33N 57°26' E 011°31'1515.1
2014-Dec-12 21:33N 57°11' E 011°39'1615.3
2014-Dec-12 20:30N 56°56' E 011°48'1515.8
2014-Dec-12 19:33N 56°42' E 011°56'3517.3
2014-Dec-12 17:33N 56°12' E 012°27'1818.2
2014-Dec-12 16:33N 55°56' E 012°43'1514.6
2014-Dec-12 15:34N 55°42' E 012°36'0 0.1
2014-Dec-12 14:32N 55°42' E 012°36'0 0.0
2014-Dec-12 13:33N 55°42' E 012°36'0 0.0
2014-Dec-12 12:32N 55°42' E 012°36'0 0.0
2014-Dec-12 11:32N 55°42' E 012°36'0 0.0
2014-Dec-12 10:32N 55°42' E 012°36'0 0.0
2014-Dec-12 09:32N 55°42' E 012°36'0 0.4
2014-Dec-12 08:34N 55°42' E 012°36'1111.4
2014-Dec-12 07:33N 55°54' E 012°40'1414.1
2014-Dec-12 06:33N 56°07' E 012°32'3316.4
2014-Dec-12 04:33N 56°38' E 012°15'1717.0
2014-Dec-12 03:33N 56°55' E 012°07'1817.5
2014-Dec-12 02:33N 57°11' E 011°54'1818.3
2014-Dec-12 01:33N 57°27' E 011°38'1817.7
2014-Dec-12 00:33N 57°43' E 011°23'1717.3
2014-Dec-11 23:33N 57°59' E 011°12'1615.6
2014-Dec-11 22:33N 58°14' E 011°03'1615.7
2014-Dec-11 21:33N 58°29' E 010°55'1515.0
2014-Dec-11 20:33N 58°43' E 010°47'1514.5
2014-Dec-11 19:33N 58°58' E 010°42'1514.7
2014-Dec-11 18:33N 59°12' E 010°38'1716.9
2014-Dec-11 17:33N 59°29' E 010°34'2612.8
2014-Dec-11 15:33N 59°54' E 010°45'0 0.0
2014-Dec-11 14:25N 59°54' E 010°45'0 0.0
2014-Dec-11 13:22N 59°54' E 010°45'0 0.0
2014-Dec-11 12:22N 59°54' E 010°45'0 0.0
2014-Dec-11 11:22N 59°54' E 010°45'0 0.0
2014-Dec-11 10:25N 59°54' E 010°45'0 0.0
2014-Dec-11 09:28N 59°54' E 010°45'0 0.2
2014-Dec-11 08:34N 59°54' E 010°45'4314.2
2014-Dec-11 05:33N 59°12' E 010°39'1716.9
2014-Dec-11 04:33N 58°55' E 010°41'1717.4
2014-Dec-11 03:33N 58°37' E 010°44'1817.9
2014-Dec-11 02:33N 58°20' E 010°46'1817.6
2014-Dec-11 01:33N 58°02' E 010°48'1716.7
2014-Dec-11 00:34N 57°45' E 010°53'1716.6
2014-Dec-10 23:33N 57°35' E 011°17'1616.0
2014-Dec-10 22:33N 57°21' E 011°32'2016.4
2014-Dec-10 21:22N 57°03' E 011°45'1215.3
2014-Dec-10 20:33N 56°52' E 011°56'1615.6
2014-Dec-10 19:33N 56°38' E 012°08'3316.3
2014-Dec-10 17:33N 56°08' E 012°31'1515.3
2014-Dec-10 16:33N 55°54' E 012°44'1313.0
2014-Dec-10 15:33N 55°42' E 012°36'0 0.0
2014-Dec-10 14:31N 55°42' E 012°36'0 0.0
2014-Dec-10 13:31N 55°42' E 012°36'0 0.0
2014-Dec-10 12:31N 55°42' E 012°36'0 0.0
2014-Dec-10 11:31N 55°42' E 012°36'0 0.0
2014-Dec-10 10:31N 55°42' E 012°36'0 0.0
2014-Dec-10 09:31N 55°42' E 012°36'4 4.6
2014-Dec-10 08:33N 55°46' E 012°41'1313.0
2014-Dec-10 07:33N 55°59' E 012°40'1413.5
2014-Dec-10 06:33N 56°10' E 012°28'2315.7
2014-Dec-10 05:04N 56°33' E 012°17'815.9
2014-Dec-10 04:33N 56°41' E 012°14'1515.0
2014-Dec-10 03:33N 56°55' E 012°07'1615.7
2014-Dec-10 02:33N 57°10' E 011°55'1615.8
2014-Dec-10 01:33N 57°23' E 011°40'1615.7
2014-Dec-10 00:33N 57°36' E 011°25'1615.7
2014-Dec-09 23:33N 57°51' E 011°16'1515.3
2014-Dec-09 22:33N 58°06' E 011°07'1615.7
2014-Dec-09 21:33N 58°21' E 010°58'1515.3
2014-Dec-09 20:34N 58°36' E 010°51'  

Dump ship's entire track history